Terminal Aerodrome Forecast
Issued by NWS

Home | Current Version | Previous Version | Text Only | Print | Product List | Glossary On
Versions: 1 2 3 4 5 6 7 8 9 10 11 12 13 14 15 16 17
000
FTUS43 KGRR 222300
TAFJXN
TAF
KJXN 222340Z 2300/2324 21012KT P6SM SCT040
     FM230300 23010KT P6SM VCTS SCT025CB BKN040
      TEMPO 2305/2307 2SM TSRA BR OVC025CB
     FM230700 32010G18KT P6SM FEW050 BKN120
     FM230900 36008KT 4SM HZ SCT120
     FM231400 35010G18KT P6SM BKN040=

USA.gov is the U.S. government's official web portal to all federal, state and local government web resources and services.